LFBI/PIS METAR and TAF weather

Enter ICAO airport designator
Station Type Date Time Source
LFBI METAR 2022/06/30 01:00 UTC NOAA

LFBI 300100Z AUTO 27003KT 240V300 9999 -RA ///TCU 14/12 Q1014 TEMPO 3000 -RA BKN014 SCT050TCU


Station Type Date Time Source
LFBI Decoded METAR 2022/06/30 01:00 UTC NOAA

Poitiers, France (LFBI) 46-35N 000-19E 120M
Jun 29, 2022 - 09:00 PM EDT / 2022.06.30 0100 UTC
Wind: from the W (270 degrees) at 3 MPH (3 KT) (direction variable):0
Visibility: greater than 7 mile(s):0
Weather: light rain; Towering cumulus clouds observed
Temperature: 57 F (14 C)
Dew Point: 53 F (12 C)
Relative Humidity: 87%
Pressure (altimeter): 29.94 in. Hg (1014 hPa)
ob: LFBI 300100Z AUTO 27003KT 240V300 9999 -RA ///TCU 14/12 Q1014 TEMPO 3000 -RA BKN014 SCT050TCU
cycle: 1

Station Type Date Time Source
LFBI TAF 2022/06/29 18:21 UTC NOAA

TAF LFBI 291700Z 2918/3018 27010KT 9999 BKN030
TEMPO 2918/3006 4000 -RA BKN015 SCT050TCU
BECMG 3006/3008 20005KT
TEMPO 3008/3016 4000 -SHRA BKN025TCU
BECMG 3016/3018 CAVOK

Example: see airport list